Pagrindinis puslapis
METAR-TAF:

METAR-TAF

Oro uostai :

Budapešto Ferenco Listo tarptautinis oro uostas

Budapeštas, Vengrija

platuma: 47-26N, ilguma: 019-16E, Aukštis: 151 m

Dabartinis oras

Ataskaita buvo paskelbta 30 minutes, ne 22:00 UTC
Vėjas 5 kt iš Šiaurės/Šiaurės Vakarų
Temperatūra 7°C
Drėgmė 76%
Slėgis 1027 hPa
Matomumas 10 km arba daugiau
nėra debesų žemiau 1500 m ir nėra kamuolinių lietaus debesų

METAR: LHBP 202200Z 34005KT CAVOK 07/03 Q1027 NOSIG

Laikas: 00:30 (22:30 UTC)

Prognozė

Ataskaita buvo paskelbta 5 valandos ir 15 minutes, ne 17:15 UTC
Prognozė galioja nuo 20 metu 18 UTC su 21 metu 18 UTC
Vėjas 3 kt nuo kintamojo kryptimis
Matomumas 10 km arba daugiau
nėra debesų žemiau 1500 m ir nėra kamuolinių lietaus debesų
Tapsmas
nuo 21 metu 10 UTC su 21 metu 12 UTC
Vėjas 5 kt iš Pietų/Pietvakarių
Tapsmas
nuo 21 metu 16 UTC su 21 metu 18 UTC
Vėjas 3 kt iš Rytų

TAF: LHBP 201715Z 2018/2118 VRB03KT CAVOK BECMG 2110/2112 20005KT BECMG 2116/2118 10003KT

Orai ataskaitas ir orų prognozės (METAR, TAF).

turimą stotys yra geltonos ir raudonos taškus žemėlapyje.

Perkelti pele per norėdami pamatyti stoties vardą.

Tada spustelėkite, norėdami matyti oro stebėjimo ir prognozės.

Norėdami pakeisti žemėlapį: spustelėkite ant žalios mygtukų su juodo kryžiaus žemyn,; žalią mygtuką su brūkšneliu, jei norite nutolinti; arba žalių rodyklių gretimoms žemėlapius.


METAR-TAF: